I69

Clermont County Airport

Batavia, Ohio, USA
METAR KI69 142135Z AUTO 10004KT 7SM -RA SCT095 OVC110 12/06 A3009 RMK AO2 T01160058
Observed Flight Rules
Dec-14 @ 21:35 UTC (19 minutes ago) Visual Flight Rules
Wind Visibility Clouds Conditions
100° at 4 knots 7 miles
  • Scattered at 9,500' AGL
  • Overcast at 11,000' AGL
  • Light Rain
Temperatures Readings
Current 12°C / 54°F
Dewpoint 6°C / 43°F
Humidity 67%
Altimeter 30.09" Hg
Pressure 1019 hPa
Elevation 255
METAR KI69 142135Z AUTO 10004KT 7SM -RA SCT095 OVC110 12/06 A3009 RMK AO2 T01160058
Observed Flight Rules
Dec-14 @ 21:35 UTC
(19 minutes ago)
VFR
Wind Visibility
100° at 4 knots 7 miles
Clouds
  • Scattered at 9,500' AGL
  • Overcast at 11,000' AGL
Conditions
  • Light Rain
Temperature Dewpoint
12°C / 54°F 6°C / 43°F
Humidity Altimeter Pressure
67% 30.09" Hg 1019 hPa